Terminal Aerodrome Forecast
Issued by NWS

Home | Current Version | Previous Version | Text Only | Print | Product List | Glossary On
Versions: 1 2 3 4 5 6 7 8 9 10 11 12 13 14 15 16 17 18 19
000
FTUS43 KDDC 220537
TAFHYS
TAF
KHYS 220537Z 2206/2306 32013G20KT 3SM -SN OVC002
     FM220800 32025G35KT 1SM -SN BLSN OVC002
      TEMPO 2208/2212 1/4SM SN BLSN
     FM221600 33025G35KT 3SM BLSN BKN020
     FM221800 33025G35KT P6SM BKN025
     FM222000 32025G35KT P6SM SCT070=

USA.gov is the U.S. government's official web portal to all federal, state and local government web resources and services.